Time;durP1;ratioP1;P1;durP2;ratioP2;P2;SDS_P1;SDS_P2;PMS_P1;PMS_P2;Temp;Humidity;BMP_temperature;BMP_pressure;BME280_temperature;BME280_humidity;BME280_pressure;Samples;Min_cycle;Max_cycle;Signal;HPM_P1;HPM_P2
2022/06/30 00:00:04;;;;;;;4.60;2.53;;;22.20;99.90;;;;;;4975943;28;20070;-72
2022/06/30 00:02:30;;;;;;;4.95;2.70;;;22.10;99.90;;;;;;4975830;28;20460;-72
2022/06/30 00:04:55;;;;;;;4.70;2.80;;;22.10;99.90;;;;;;4975966;28;20537;-72
2022/06/30 00:07:21;;;;;;;4.38;2.50;;;22.10;99.90;;;;;;4976385;28;20047;-72
2022/06/30 00:09:47;;;;;;;8.05;2.55;;;22.00;99.90;;;;;;4975964;28;20505;-72
2022/06/30 00:12:12;;;;;;;4.45;2.60;;;22.00;99.90;;;;;;4975863;28;20065;-72
2022/06/30 00:14:38;;;;;;;4.95;2.50;;;22.00;99.90;;;;;;4978723;28;20553;-72
2022/06/30 00:17:04;;;;;;;6.13;2.75;;;21.90;99.90;;;;;;4963706;28;20053;-72
2022/06/30 00:19:30;;;;;;;5.00;2.80;;;21.90;99.90;;;;;;4995845;28;20458;-72
2022/06/30 00:21:56;;;;;;;8.13;2.70;;;21.90;99.90;;;;;;4979351;28;20078;-72
2022/06/30 00:24:21;;;;;;;5.07;2.53;;;21.80;99.90;;;;;;4963553;28;20046;-72
2022/06/30 00:26:47;;;;;;;4.95;3.13;;;21.80;99.90;;;;;;4979322;28;20050;-72
2022/06/30 00:29:12;;;;;;;6.55;3.00;;;21.80;99.90;;;;;;4963434;28;20089;-72
2022/06/30 00:31:38;;;;;;;8.70;3.10;;;21.70;99.90;;;;;;4963245;28;20038;-72
2022/06/30 00:34:03;;;;;;;4.47;2.47;;;21.70;99.90;;;;;;4979490;28;20442;-72
2022/06/30 00:36:29;;;;;;;5.65;2.80;;;21.70;99.90;;;;;;4979130;28;20555;-72
2022/06/30 00:38:55;;;;;;;4.00;2.60;;;21.60;99.90;;;;;;4979109;28;20041;-72
2022/06/30 00:41:20;;;;;;;3.42;2.40;;;21.50;99.90;;;;;;4978981;28;20047;-72
2022/06/30 00:43:47;;;;;;;3.85;2.42;;;21.50;99.90;;;;;;4963051;28;20057;-72
2022/06/30 00:46:13;;;;;;;6.78;2.78;;;21.50;99.90;;;;;;4995255;28;20059;-72
2022/06/30 00:48:39;;;;;;;3.72;2.28;;;21.40;99.90;;;;;;4978991;28;20047;-72
2022/06/30 00:51:05;;;;;;;4.47;2.75;;;21.40;99.90;;;;;;4978623;28;20410;-72
2022/06/30 00:53:41;;;;;;;3.85;2.47;;;21.40;99.90;;;;;;4996243;28;20482;-72
2022/06/30 00:56:10;;;;;;;3.70;2.45;;;21.40;99.90;;;;;;4995355;28;20406;-72
2022/06/30 00:58:39;;;;;;;4.65;2.42;;;21.30;99.90;;;;;;4979005;28;20521;-72
2022/06/30 01:01:07;;;;;;;5.30;2.60;;;21.30;99.90;;;;;;4978715;28;20050;-72
2022/06/30 01:03:36;;;;;;;2.90;2.00;;;21.20;99.90;;;;;;4994904;28;20042;-72
2022/06/30 01:06:03;;;;;;;7.15;2.30;;;21.20;99.90;;;;;;4978709;28;20510;-72
2022/06/30 01:08:33;;;;;;;6.03;2.35;;;21.10;99.90;;;;;;4978862;28;20141;-72
2022/06/30 01:13:45;;;;;;;6.22;2.35;;;21.10;99.90;;;;;;4978908;28;20046;-72
2022/06/30 01:16:11;;;;;;;4.38;2.30;;;21.00;99.90;;;;;;4978735;28;20038;-72
2022/06/30 01:18:37;;;;;;;3.53;2.30;;;21.00;99.90;;;;;;4962459;28;20403;-72
2022/06/30 01:21:03;;;;;;;4.55;2.42;;;21.00;99.90;;;;;;4994900;28;20038;-72
2022/06/30 01:23:29;;;;;;;3.33;2.40;;;21.00;99.90;;;;;;4978367;28;20502;-72
2022/06/30 01:25:54;;;;;;;3.47;2.78;;;21.00;99.90;;;;;;4978010;28;20046;-72
2022/06/30 01:28:20;;;;;;;6.35;2.20;;;21.00;99.90;;;;;;4978235;28;20574;-72
2022/06/30 01:30:46;;;;;;;4.22;2.63;;;20.90;99.90;;;;;;4978200;28;20415;-71
2022/06/30 01:33:12;;;;;;;3.80;2.70;;;20.90;99.90;;;;;;4962069;28;20031;-71
2022/06/30 01:35:38;;;;;;;5.13;2.72;;;20.90;99.90;;;;;;4978496;28;20128;-71
2022/06/30 01:38:04;;;;;;;6.32;2.95;;;20.90;99.90;;;;;;4978117;28;20442;-71
2022/06/30 01:40:33;;;;;;;7.30;2.65;;;20.80;99.90;;;;;;4962198;28;20050;-71
2022/06/30 01:42:59;;;;;;;5.85;2.80;;;20.80;99.90;;;;;;4978266;28;20049;-71
2022/06/30 01:45:25;;;;;;;4.15;2.67;;;20.70;99.90;;;;;;4978212;28;20041;-71
2022/06/30 01:47:51;;;;;;;6.05;2.78;;;20.70;99.90;;;;;;4961799;28;20046;-71
2022/06/30 01:50:20;;;;;;;4.13;2.47;;;20.70;99.90;;;;;;4978233;28;20125;-71
2022/06/30 01:52:46;;;;;;;4.57;2.95;;;20.60;99.90;;;;;;4977616;28;20499;-71
2022/06/30 01:55:13;;;;;;;4.40;2.50;;;20.50;99.90;;;;;;4994016;28;20038;-71
2022/06/30 01:57:38;;;;;;;6.43;2.50;;;20.60;99.90;;;;;;4994666;28;20042;-71
2022/06/30 02:00:14;;;;;;;5.50;2.65;;;20.50;99.90;;;;;;4977672;28;20454;-71
2022/06/30 02:02:40;;;;;;;6.25;2.60;;;20.50;99.90;;;;;;4977643;28;20046;-71
2022/06/30 02:05:07;;;;;;;5.22;2.78;;;20.50;99.90;;;;;;4977670;28;20042;-71
2022/06/30 02:07:36;;;;;;;6.80;3.00;;;20.50;99.90;;;;;;4977667;28;20062;-71
2022/06/30 02:10:02;;;;;;;4.07;2.45;;;20.40;99.90;;;;;;4977666;28;20052;-71
2022/06/30 02:12:46;;;;;;;2.75;2.42;;;20.40;99.90;;;;;;4993849;28;20459;-71
2022/06/30 02:15:33;;;;;;;5.25;2.88;;;20.40;99.90;;;;;;4977521;28;20486;-71
2022/06/30 02:18:01;;;;;;;6.75;2.72;;;20.40;99.90;;;;;;4977689;28;20129;-71
2022/06/30 02:20:26;;;;;;;7.40;2.58;;;20.30;99.90;;;;;;4977454;28;20043;-71
2022/06/30 02:22:58;;;;;;;8.38;2.53;;;20.30;99.90;;;;;;4977303;28;20043;-71
2022/06/30 02:25:25;;;;;;;5.77;2.90;;;20.30;99.90;;;;;;4993485;28;20153;-71
2022/06/30 02:27:51;;;;;;;4.82;2.30;;;20.30;99.90;;;;;;4977537;28;20034;-71
2022/06/30 02:30:18;;;;;;;4.03;2.63;;;20.30;99.90;;;;;;4977217;28;20050;-71
2022/06/30 02:32:44;;;;;;;4.90;2.40;;;20.20;99.90;;;;;;4961188;28;20038;-71
2022/06/30 02:35:10;;;;;;;5.30;2.50;;;20.30;99.90;;;;;;4977028;28;20483;-71
2022/06/30 02:37:36;;;;;;;3.65;2.65;;;20.20;99.90;;;;;;4976239;28;20046;-71
2022/06/30 02:40:03;;;;;;;4.32;2.30;;;20.30;99.90;;;;;;4994440;28;20073;-71
2022/06/30 02:42:28;;;;;;;3.42;2.40;;;20.20;99.90;;;;;;4977021;28;20138;-71
2022/06/30 02:44:54;;;;;;;3.35;2.30;;;20.20;99.90;;;;;;4976888;28;20077;-71
2022/06/30 02:47:20;;;;;;;4.05;2.67;;;20.20;99.90;;;;;;4994483;28;20047;-71
2022/06/30 02:49:45;;;;;;;3.47;2.20;;;20.20;99.90;;;;;;4977100;28;20091;-71
2022/06/30 02:52:11;;;;;;;4.88;2.45;;;20.10;99.90;;;;;;4976749;28;20516;-71
2022/06/30 02:54:36;;;;;;;3.72;2.17;;;20.10;99.90;;;;;;4976809;28;20034;-71
2022/06/30 02:57:02;;;;;;;3.25;2.63;;;20.10;99.90;;;;;;4976931;28;20053;-71
2022/06/30 02:59:28;;;;;;;4.28;2.55;;;20.10;99.90;;;;;;4976729;28;20042;-71
2022/06/30 03:01:53;;;;;;;6.88;2.50;;;20.10;99.90;;;;;;4977021;28;20050;-71
2022/06/30 03:04:21;;;;;;;5.57;2.50;;;20.10;99.90;;;;;;4976566;28;20491;-71
2022/06/30 03:06:46;;;;;;;4.03;2.45;;;20.00;99.90;;;;;;4960823;28;20097;-71
2022/06/30 03:09:12;;;;;;;7.10;2.63;;;20.00;99.90;;;;;;4976661;28;20518;-71
2022/06/30 03:11:39;;;;;;;4.80;2.47;;;20.00;99.90;;;;;;4976372;28;20054;-71
2022/06/30 03:14:04;;;;;;;4.75;2.60;;;20.00;99.90;;;;;;4976487;28;20053;-71
2022/06/30 03:16:30;;;;;;;4.43;2.70;;;20.00;99.90;;;;;;4960550;28;20034;-71
2022/06/30 03:18:56;;;;;;;5.25;2.70;;;20.00;99.90;;;;;;4976369;28;20093;-71
2022/06/30 03:21:21;;;;;;;5.63;2.40;;;20.00;99.90;;;;;;4976350;28;20046;-71
2022/06/30 03:23:47;;;;;;;6.22;2.90;;;20.00;99.90;;;;;;4993996;28;20042;-71
2022/06/30 03:26:12;;;;;;;5.05;2.65;;;19.90;99.90;;;;;;4976475;28;20046;-71
2022/06/30 03:28:38;;;;;;;5.07;2.90;;;19.90;99.90;;;;;;4976566;28;20039;-71
2022/06/30 03:31:04;;;;;;;5.32;2.45;;;19.90;99.90;;;;;;4960042;28;20049;-71
2022/06/30 03:33:30;;;;;;;8.10;2.30;;;19.90;99.90;;;;;;4976303;28;20035;-71
2022/06/30 03:35:56;;;;;;;6.50;3.00;;;19.90;99.90;;;;;;4976311;28;20031;-71
2022/06/30 03:38:22;;;;;;;4.38;2.50;;;19.90;99.90;;;;;;4976577;28;20069;-71
2022/06/30 03:40:48;;;;;;;3.83;2.90;;;19.80;99.90;;;;;;4993528;28;20498;-71
2022/06/30 03:43:13;;;;;;;4.55;2.50;;;19.80;99.90;;;;;;4976312;28;20121;-71
2022/06/30 03:45:39;;;;;;;6.28;3.10;;;19.80;99.90;;;;;;4976458;28;20041;-71
2022/06/30 03:48:06;;;;;;;5.28;2.20;;;19.80;99.90;;;;;;4976472;28;20487;-71
2022/06/30 03:50:33;;;;;;;4.63;2.50;;;19.80;99.90;;;;;;4979951;28;20046;-71
2022/06/30 03:52:59;;;;;;;3.95;2.63;;;19.80;99.90;;;;;;4980244;28;20034;-71
2022/06/30 03:55:25;;;;;;;3.58;2.50;;;19.80;99.90;;;;;;4979983;28;20380;-71
2022/06/30 03:57:51;;;;;;;3.67;2.88;;;19.80;99.90;;;;;;4980024;28;20173;-71
2022/06/30 04:00:17;;;;;;;5.82;2.38;;;19.70;99.90;;;;;;4980049;28;20069;-71
2022/06/30 04:02:43;;;;;;;3.90;2.50;;;19.80;99.90;;;;;;4979833;28;20048;-71
2022/06/30 04:05:09;;;;;;;2.85;2.50;;;19.80;99.90;;;;;;4979821;28;20507;-71
2022/06/30 04:07:45;;;;;;;6.07;2.90;;;19.80;99.90;;;;;;4979671;28;20053;-71
2022/06/30 04:10:13;;;;;;;4.05;2.50;;;19.80;99.90;;;;;;4979881;28;20403;-71
2022/06/30 04:12:39;;;;;;;5.25;2.92;;;19.80;99.90;;;;;;4979481;28;20454;-71
2022/06/30 04:15:05;;;;;;;7.68;2.55;;;19.70;99.90;;;;;;4979989;28;20053;-71
2022/06/30 04:17:33;;;;;;;5.47;2.70;;;19.70;99.90;;;;;;4997390;28;20042;-71
2022/06/30 04:20:00;;;;;;;4.32;2.65;;;19.80;99.90;;;;;;4997122;28;20133;-71
2022/06/30 04:22:26;;;;;;;3.72;2.50;;;19.70;99.90;;;;;;4979686;28;20145;-71
2022/06/30 04:24:51;;;;;;;5.63;2.60;;;19.70;99.90;;;;;;4979620;28;20467;-71
2022/06/30 04:27:17;;;;;;;4.40;2.67;;;19.70;99.90;;;;;;4979756;28;20043;-71
2022/06/30 04:29:43;;;;;;;4.20;2.80;;;19.70;99.90;;;;;;4979710;28;20046;-71
2022/06/30 04:34:53;;;;;;;5.20;2.50;;;19.70;99.90;;;;;;4979221;28;20412;-71
2022/06/30 04:37:19;;;;;;;5.45;2.78;;;19.70;99.90;;;;;;4979657;28;20133;-71
2022/06/30 04:39:47;;;;;;;5.22;3.03;;;19.70;99.90;;;;;;4979515;28;20045;-70
2022/06/30 04:42:13;;;;;;;3.60;2.58;;;19.80;99.90;;;;;;4979103;28;20093;-70
2022/06/30 04:44:39;;;;;;;4.32;2.58;;;19.70;99.90;;;;;;4996735;28;20046;-70
2022/06/30 04:47:04;;;;;;;4.72;2.70;;;19.80;99.90;;;;;;4963044;28;20126;-70
2022/06/30 04:49:30;;;;;;;6.43;2.85;;;19.80;99.90;;;;;;4979391;28;20038;-71
2022/06/30 04:51:55;;;;;;;3.47;2.50;;;19.80;99.90;;;;;;4978649;28;20474;-71
2022/06/30 04:54:21;;;;;;;6.55;2.95;;;19.80;99.90;;;;;;4979360;28;20042;-71
2022/06/30 04:56:47;;;;;;;4.68;2.50;;;19.90;99.90;;;;;;4996767;28;20520;-71
2022/06/30 04:59:13;;;;;;;4.43;2.53;;;19.90;99.90;;;;;;4963062;28;20438;-71
2022/06/30 05:01:38;;;;;;;5.15;2.75;;;19.90;99.90;;;;;;4977987;28;20053;-71
2022/06/30 05:04:04;;;;;;;4.88;2.67;;;19.90;99.90;;;;;;4978671;28;20042;-71
2022/06/30 05:06:29;;;;;;;3.60;2.70;;;19.90;99.90;;;;;;4962599;28;20121;-71
2022/06/30 05:08:55;;;;;;;3.50;2.42;;;20.00;99.90;;;;;;4978651;28;20046;-71
2022/06/30 05:11:20;;;;;;;5.95;2.85;;;20.00;99.90;;;;;;4978589;28;20042;-71
2022/06/30 05:13:46;;;;;;;7.85;3.38;;;20.00;99.90;;;;;;4979021;28;20042;-71
2022/06/30 05:16:12;;;;;;;7.20;3.00;;;20.00;99.90;;;;;;4978574;28;20085;-71
2022/06/30 05:18:37;;;;;;;5.38;2.42;;;20.00;99.90;;;;;;4978937;28;20046;-71
2022/06/30 05:21:03;;;;;;;5.78;3.05;;;20.00;99.90;;;;;;4978599;28;20384;-71
2022/06/30 05:23:29;;;;;;;6.63;3.33;;;20.00;99.90;;;;;;4978399;28;20085;-71
2022/06/30 05:28:39;;;;;;;4.80;3.08;;;20.10;99.90;;;;;;4978430;28;20045;-71
2022/06/30 05:31:04;;;;;;;4.85;3.20;;;20.20;99.90;;;;;;4978483;28;20054;-71
2022/06/30 05:33:30;;;;;;;8.00;3.90;;;20.20;99.90;;;;;;4978298;28;20491;-71
2022/06/30 05:35:58;;;;;;;4.82;3.03;;;20.20;99.90;;;;;;4962255;28;20104;-71
2022/06/30 05:38:23;;;;;;;5.47;3.20;;;20.20;99.90;;;;;;4996222;28;20038;-71
2022/06/30 05:40:49;;;;;;;3.78;3.10;;;20.20;99.90;;;;;;4977978;28;20521;-71
2022/06/30 05:43:17;;;;;;;6.70;3.45;;;20.30;99.90;;;;;;4978446;28;20081;-71
2022/06/30 05:45:46;;;;;;;5.63;3.20;;;20.30;99.90;;;;;;4977953;28;20038;-71
2022/06/30 05:48:11;;;;;;;3.63;3.20;;;20.30;99.90;;;;;;4962114;28;20479;-71
2022/06/30 05:50:37;;;;;;;4.43;3.40;;;20.30;99.90;;;;;;4961687;28;20229;-71
2022/06/30 05:53:02;;;;;;;4.70;3.15;;;20.40;99.90;;;;;;4978049;28;20088;-73
2022/06/30 05:55:28;;;;;;;4.85;3.25;;;20.40;99.90;;;;;;4977874;28;20212;-73
2022/06/30 05:57:55;;;;;;;4.85;3.70;;;20.50;99.90;;;;;;4977679;28;20066;-73
2022/06/30 06:00:23;;;;;;;4.47;3.08;;;20.60;99.90;;;;;;4961769;28;20042;-74
2022/06/30 06:02:49;;;;;;;6.20;3.22;;;20.60;99.90;;;;;;4977809;28;20042;-74
2022/06/30 06:05:15;;;;;;;4.40;3.80;;;20.70;99.90;;;;;;4993929;28;20046;-73
2022/06/30 06:07:42;;;;;;;5.50;3.50;;;20.80;99.90;;;;;;4977890;28;20036;-73
2022/06/30 06:10:08;;;;;;;8.82;3.90;;;20.80;99.90;;;;;;4961835;28;20042;-72
2022/06/30 06:12:34;;;;;;;5.47;3.13;;;20.90;99.90;;;;;;4977476;28;20042;-72
2022/06/30 06:14:59;;;;;;;7.03;3.80;;;21.00;99.90;;;;;;4977365;28;20061;-73
2022/06/30 06:17:25;;;;;;;5.80;3.67;;;21.10;99.90;;;;;;4977360;28;20135;-72
2022/06/30 06:19:51;;;;;;;6.47;3.50;;;21.20;99.90;;;;;;4977441;28;20497;-72
2022/06/30 06:22:17;;;;;;;5.50;3.50;;;21.30;99.90;;;;;;4977669;28;20046;-72
2022/06/30 06:24:42;;;;;;;6.35;3.25;;;21.30;99.90;;;;;;4977193;28;20042;-72
2022/06/30 06:27:08;;;;;;;6.20;3.47;;;21.40;99.90;;;;;;4961462;28;20089;-72
2022/06/30 06:29:33;;;;;;;5.95;3.25;;;21.50;99.90;;;;;;4977391;28;20045;-73
2022/06/30 06:31:59;;;;;;;6.57;3.28;;;21.50;99.90;;;;;;4977101;28;20050;-72
2022/06/30 06:34:25;;;;;;;5.90;3.35;;;21.60;99.90;;;;;;4977129;28;20078;-72
2022/06/30 06:36:50;;;;;;;6.72;3.80;;;21.80;99.90;;;;;;4976983;28;20035;-72
2022/06/30 06:39:16;;;;;;;8.98;3.70;;;21.80;99.90;;;;;;4977254;28;20042;-72
2022/06/30 06:41:41;;;;;;;7.28;3.95;;;21.90;99.90;;;;;;4977557;28;20459;-72
2022/06/30 06:44:07;;;;;;;5.05;3.72;;;21.90;99.90;;;;;;4960903;28;20089;-72
2022/06/30 06:46:32;;;;;;;7.05;4.18;;;22.00;99.90;;;;;;4977423;28;20042;-72
2022/06/30 06:49:00;;;;;;;5.00;3.60;;;22.10;99.90;;;;;;4976801;28;20495;-72
2022/06/30 06:51:27;;;;;;;6.65;4.13;;;22.10;99.90;;;;;;4992798;28;20034;-72
2022/06/30 06:53:52;;;;;;;5.18;3.90;;;22.20;99.90;;;;;;4977039;28;20149;-72
2022/06/30 06:56:18;;;;;;;5.93;4.30;;;22.20;99.90;;;;;;4976888;28;20523;-72
2022/06/30 06:58:44;;;;;;;5.22;3.95;;;22.30;99.90;;;;;;4960464;28;20034;-72
2022/06/30 07:01:10;;;;;;;4.85;3.88;;;22.40;99.90;;;;;;4976555;28;20046;-72
2022/06/30 07:03:36;;;;;;;5.95;4.05;;;22.50;99.90;;;;;;4976876;28;20121;-72
2022/06/30 07:06:01;;;;;;;5.50;4.40;;;22.50;99.90;;;;;;4976756;28;20517;-70
2022/06/30 07:08:27;;;;;;;8.82;4.55;;;22.60;99.90;;;;;;4961207;28;20046;-70
2022/06/30 07:10:55;;;;;;;7.05;4.22;;;22.70;99.90;;;;;;4976674;28;20097;-70
2022/06/30 07:13:21;;;;;;;6.53;4.47;;;22.70;99.90;;;;;;4960800;28;20553;-71
2022/06/30 07:15:46;;;;;;;6.68;4.88;;;22.80;99.90;;;;;;4960207;28;20042;-71
2022/06/30 07:18:12;;;;;;;4.50;4.05;;;22.80;99.90;;;;;;4976787;28;20096;-71
2022/06/30 07:20:38;;;;;;;6.22;4.40;;;22.90;99.90;;;;;;4976342;28;20514;-71
2022/06/30 07:23:04;;;;;;;6.03;4.60;;;23.00;99.90;;;;;;4975828;28;20046;-71
2022/06/30 07:25:29;;;;;;;6.63;5.15;;;23.10;99.90;;;;;;4976536;28;20042;-70
2022/06/30 07:27:55;;;;;;;6.30;4.80;;;23.10;99.90;;;;;;4976258;28;20120;-70
2022/06/30 07:30:21;;;;;;;5.97;4.10;;;23.20;99.90;;;;;;4976694;28;20053;-71
2022/06/30 07:32:46;;;;;;;6.70;5.03;;;23.30;99.90;;;;;;4976360;28;20457;-71
2022/06/30 07:35:12;;;;;;;6.72;4.95;;;23.40;99.90;;;;;;4992563;28;20055;-70
2022/06/30 07:37:39;;;;;;;6.22;5.38;;;23.50;99.90;;;;;;4993916;28;20043;-70
2022/06/30 07:40:05;;;;;;;8.10;5.13;;;23.50;99.90;;;;;;4994055;28;20042;-70
2022/06/30 07:42:31;;;;;;;7.18;5.00;;;23.60;99.90;;;;;;4976105;28;20510;-71
2022/06/30 07:44:56;;;;;;;7.05;5.28;;;23.70;99.90;;;;;;4976425;28;20050;-71
2022/06/30 07:47:22;;;;;;;7.55;5.05;;;23.80;99.90;;;;;;4976103;28;20089;-72
2022/06/30 07:49:48;;;;;;;7.90;5.15;;;23.80;99.90;;;;;;4976100;28;20043;-71
2022/06/30 07:52:14;;;;;;;9.75;5.68;;;23.90;99.90;;;;;;4959689;28;20058;-70
2022/06/30 07:54:40;;;;;;;6.57;5.38;;;24.00;99.90;;;;;;4976295;28;20081;-71
2022/06/30 07:57:06;;;;;;;6.18;5.47;;;24.10;99.90;;;;;;4992216;28;20070;-71
2022/06/30 07:59:31;;;;;;;10.27;6.35;;;24.20;99.90;;;;;;4976249;28;20062;-71
2022/06/30 08:01:57;;;;;;;6.47;5.88;;;24.30;99.90;;;;;;4976430;28;20388;-71
2022/06/30 08:04:22;;;;;;;6.80;5.75;;;24.40;99.90;;;;;;4976295;28;20046;-71
2022/06/30 08:06:48;;;;;;;7.10;6.05;;;24.50;99.90;;;;;;4976020;28;20463;-71
2022/06/30 08:09:14;;;;;;;7.32;6.03;;;24.60;99.90;;;;;;4975994;28;20049;-71
2022/06/30 08:11:39;;;;;;;8.57;7.25;;;24.80;99.90;;;;;;4975772;28;20100;-71
2022/06/30 08:14:05;;;;;;;7.47;6.50;;;24.80;99.90;;;;;;4993374;28;20034;-71
2022/06/30 08:16:31;;;;;;;8.60;7.32;;;24.90;99.90;;;;;;4975944;28;20403;-71
2022/06/30 08:18:56;;;;;;;8.93;7.60;;;25.00;99.90;;;;;;4975904;28;20053;-70
2022/06/30 08:21:22;;;;;;;9.63;7.95;;;25.10;99.90;;;;;;4975808;28;20038;-71
2022/06/30 08:23:47;;;;;;;7.63;6.55;;;25.20;99.90;;;;;;4975862;28;20149;-71
2022/06/30 08:26:13;;;;;;;7.70;6.13;;;25.30;99.90;;;;;;4993724;28;20042;-71
2022/06/30 08:28:39;;;;;;;8.95;7.47;;;25.50;99.90;;;;;;4975948;28;20042;-71
2022/06/30 08:31:04;;;;;;;7.90;7.20;;;25.70;99.90;;;;;;4975592;28;20050;-71
2022/06/30 08:33:30;;;;;;;9.70;8.10;;;25.80;99.90;;;;;;4975931;28;20038;-71
2022/06/30 08:35:56;;;;;;;8.23;7.43;;;25.90;99.90;;;;;;4977299;28;20070;-71
2022/06/30 08:38:21;;;;;;;6.80;6.05;;;26.00;99.90;;;;;;4963399;28;20043;-71
2022/06/30 08:43:33;;;;;;;11.88;7.78;;;26.30;99.90;;;;;;4979058;28;20038;-71
2022/06/30 08:46:00;;;;;;;8.48;7.68;;;26.40;99.90;;;;;;4995529;28;20046;-71
2022/06/30 08:48:26;;;;;;;9.27;8.10;;;26.50;99.90;;;;;;4995284;28;20042;-71
2022/06/30 08:50:58;;;;;;;13.07;7.75;;;26.60;99.90;;;;;;4979009;28;20085;-71
2022/06/30 08:53:27;;;;;;;11.15;8.50;;;26.70;99.90;;;;;;4995256;28;20034;-71
2022/06/30 08:55:53;;;;;;;13.07;8.50;;;26.80;99.90;;;;;;4979223;28;20030;-72
2022/06/30 08:58:20;;;;;;;9.43;7.63;;;27.00;99.90;;;;;;4979045;28;20460;-71
2022/06/30 09:00:46;;;;;;;9.77;7.82;;;27.00;99.90;;;;;;4995074;28;20045;-70
2022/06/30 09:03:11;;;;;;;11.43;7.65;;;27.10;99.90;;;;;;4978825;28;20043;-71
2022/06/30 09:05:39;;;;;;;9.88;8.75;;;27.20;99.90;;;;;;4978691;28;20038;-70
2022/06/30 09:08:04;;;;;;;10.25;7.30;;;27.40;99.90;;;;;;4978813;28;20415;-70
2022/06/30 09:10:30;;;;;;;11.38;8.80;;;27.50;99.90;;;;;;4962801;28;20038;-70
2022/06/30 09:13:01;;;;;;;9.75;8.65;;;27.60;99.90;;;;;;4978472;28;20401;-70
2022/06/30 09:15:39;;;;;;;9.80;8.80;;;27.70;99.90;;;;;;4996216;28;20114;-70
2022/06/30 09:18:06;;;;;;;9.32;8.40;;;27.80;99.90;;;;;;4980124;28;20042;-70
2022/06/30 09:20:37;;;;;;;11.38;8.60;;;27.80;99.90;;;;;;4978590;28;20046;-71
2022/06/30 09:23:25;;;;;;;9.93;6.85;;;27.90;99.90;;;;;;4978854;28;20046;-71
2022/06/30 09:25:53;;;;;;;8.15;7.45;;;28.10;99.90;;;;;;4978384;28;20053;-71
2022/06/30 09:28:58;;;;;;;10.95;8.15;;;28.20;99.90;;;;;;4994492;28;20503;-71
2022/06/30 09:31:42;;;;;;;9.75;8.02;;;28.30;99.90;;;;;;4900892;29;20048;-72
2022/06/30 09:34:19;;;;;;;9.82;8.20;;;28.50;99.90;;;;;;4900959;29;20048;-72
2022/06/30 09:36:46;;;;;;;10.90;7.75;;;28.50;99.90;;;;;;4953252;28;20074;-71
2022/06/30 09:39:13;;;;;;;9.38;8.48;;;28.60;99.90;;;;;;4995472;28;20125;-71
2022/06/30 09:41:41;;;;;;;8.77;7.97;;;28.70;99.90;;;;;;4995668;28;20054;-71
2022/06/30 09:44:17;;;;;;;9.30;8.40;;;28.70;99.90;;;;;;4977969;28;20046;-71
2022/06/30 09:47:07;;;;;;;8.55;7.22;;;28.90;99.90;;;;;;4993736;28;20042;-71
2022/06/30 09:49:37;;;;;;;10.00;8.98;;;29.00;99.90;;;;;;4995600;28;20042;-71
2022/06/30 09:52:14;;;;;;;11.48;9.48;;;29.10;97.70;;;;;;4961754;28;20038;-71
2022/06/30 09:54:54;;;;;;;10.55;8.20;;;29.00;96.70;;;;;;4995219;28;20411;-71
2022/06/30 09:57:22;;;;;;;7.82;7.03;;;28.80;99.50;;;;;;4977960;28;20065;-71
2022/06/30 10:00:01;;;;;;;7.75;6.65;;;28.60;99.90;;;;;;4995074;28;20451;-71
2022/06/30 10:02:32;;;;;;;10.48;8.10;;;28.70;99.90;;;;;;4994522;28;20046;-71
2022/06/30 10:04:59;;;;;;;8.55;7.47;;;28.70;97.70;;;;;;4978119;28;20042;-71
2022/06/30 10:07:26;;;;;;;9.52;7.30;;;28.80;97.40;;;;;;4993754;28;20049;-71
2022/06/30 10:09:52;;;;;;;9.70;6.80;;;29.00;96.50;;;;;;4995370;28;20081;-71
2022/06/30 10:12:19;;;;;;;10.13;7.30;;;29.10;96.60;;;;;;4977444;28;20096;-71
2022/06/30 10:14:47;;;;;;;7.80;7.00;;;29.30;96.00;;;;;;4993852;28;20454;-71
2022/06/30 10:17:20;;;;;;;10.45;7.68;;;29.40;94.40;;;;;;4977332;28;20406;-71
2022/06/30 10:19:46;;;;;;;9.35;8.02;;;29.50;92.10;;;;;;4977488;28;20042;-71
2022/06/30 10:22:12;;;;;;;7.90;6.50;;;29.70;93.30;;;;;;4977402;28;20053;-71
2022/06/30 10:24:41;;;;;;;8.13;7.32;;;29.80;92.40;;;;;;4961178;28;20543;-70
2022/06/30 10:27:12;;;;;;;9.80;3.90;;;29.90;93.80;;;;;;4977620;28;20104;-71
2022/06/30 10:29:40;;;;;;;8.35;4.43;;;30.00;93.50;;;;;;4977120;28;20042;-71
2022/06/30 10:32:21;;;;;;;8.05;3.58;;;30.10;87.50;;;;;;4976982;28;20101;-71
2022/06/30 10:34:56;;;;;;;9.40;4.38;;;30.30;89.20;;;;;;4960999;28;20438;-70
2022/06/30 10:37:42;;;;;;;6.53;4.03;;;30.50;86.80;;;;;;4961367;28;20050;-71
2022/06/30 10:40:49;;;;;;;5.80;4.03;;;30.60;75.40;;;;;;4977403;28;20042;-71
2022/06/30 10:43:16;;;;;;;5.50;3.33;;;30.90;80.80;;;;;;4993417;28;20073;-71
2022/06/30 10:46:02;;;;;;;6.75;3.22;;;31.00;78.30;;;;;;4976888;28;20507;-71
2022/06/30 10:48:50;;;;;;;9.95;4.45;;;30.90;68.70;;;;;;4994787;28;20046;-71
2022/06/30 10:51:17;;;;;;;7.95;4.65;;;30.40;69.70;;;;;;4977021;28;20050;-71
2022/06/30 10:53:42;;;;;;;10.73;4.63;;;29.90;73.30;;;;;;4977084;28;20553;-71
2022/06/30 10:56:08;;;;;;;6.45;4.30;;;29.60;78.70;;;;;;4994145;28;20070;-71
2022/06/30 10:58:34;;;;;;;6.95;3.97;;;29.20;82.70;;;;;;4976045;28;20038;-71
2022/06/30 11:01:04;;;;;;;5.95;3.35;;;29.10;90.00;;;;;;4976943;28;20462;-71
2022/06/30 11:03:29;;;;;;;8.25;3.65;;;28.80;90.00;;;;;;4976676;28;20511;-71
2022/06/30 11:05:59;;;;;;;5.43;3.72;;;28.70;87.90;;;;;;4976524;28;20039;-71
2022/06/30 11:11:24;;;;;;;6.00;3.90;;;28.60;90.40;;;;;;4976366;28;20044;-71
2022/06/30 11:14:02;;;;;;;7.50;3.50;;;28.70;89.10;;;;;;4976409;28;20053;-71
2022/06/30 11:16:30;;;;;;;9.80;4.03;;;28.90;88.80;;;;;;4976371;28;20034;-71
2022/06/30 11:18:56;;;;;;;8.63;3.83;;;29.30;82.50;;;;;;4993684;28;20101;-71
2022/06/30 11:21:22;;;;;;;8.13;4.18;;;29.70;84.10;;;;;;4976316;28;20042;-71
2022/06/30 11:23:49;;;;;;;7.90;3.60;;;29.80;72.60;;;;;;4976761;28;20043;-71
2022/06/30 11:29:04;;;;;;;4.93;2.92;;;29.50;69.50;;;;;;4976226;28;20046;-71
2022/06/30 11:31:33;;;;;;;5.07;3.13;;;29.70;69.50;;;;;;4993443;28;20042;-71
2022/06/30 11:34:03;;;;;;;8.60;3.33;;;29.90;69.00;;;;;;4960375;28;20042;-71
2022/06/30 11:36:28;;;;;;;9.75;4.43;;;30.20;64.70;;;;;;4976245;28;20085;-71
2022/06/30 11:39:01;;;;;;;10.02;4.82;;;30.40;67.90;;;;;;4976192;28;20046;-71
2022/06/30 11:44:14;;;;;;;7.78;3.65;;;30.70;72.60;;;;;;4994032;28;20054;-71
2022/06/30 11:46:54;;;;;;;7.32;4.85;;;31.00;71.20;;;;;;4976094;28;20046;-71
2022/06/30 11:49:22;;;;;;;7.72;4.50;;;31.30;71.40;;;;;;4993916;28;20046;-71
2022/06/30 11:51:50;;;;;;;9.35;4.53;;;31.50;69.80;;;;;;4976183;28;20042;-71
2022/06/30 11:54:20;;;;;;;8.00;3.80;;;31.30;67.00;;;;;;4976277;28;20045;-71
2022/06/30 11:56:57;;;;;;;8.10;4.63;;;31.10;68.40;;;;;;4976565;28;20077;-71
2022/06/30 11:59:22;;;;;;;6.15;4.15;;;30.80;66.90;;;;;;4976117;28;20073;-71
2022/06/30 12:02:06;;;;;;;7.50;3.83;;;30.40;69.10;;;;;;4976038;28;20074;-70
2022/06/30 12:04:33;;;;;;;8.85;4.63;;;30.50;71.60;;;;;;4993715;28;20050;-71
2022/06/30 12:07:03;;;;;;;8.65;5.25;;;30.60;70.00;;;;;;4975990;28;20495;-71
2022/06/30 12:09:29;;;;;;;11.55;4.85;;;30.90;70.20;;;;;;4976859;28;20082;-71
2022/06/30 12:11:58;;;;;;;9.10;5.70;;;31.20;67.70;;;;;;4979853;28;20074;-71
2022/06/30 12:14:24;;;;;;;10.18;5.15;;;31.20;65.50;;;;;;4963563;28;20038;-71
2022/06/30 12:16:56;;;;;;;8.90;5.75;;;31.10;64.70;;;;;;4996097;28;20046;-71
2022/06/30 12:19:25;;;;;;;9.27;3.75;;;31.30;67.00;;;;;;4979844;28;20042;-71
2022/06/30 12:21:52;;;;;;;9.10;4.32;;;31.50;65.70;;;;;;4979723;28;20101;-71
2022/06/30 12:24:18;;;;;;;6.72;3.33;;;31.60;61.90;;;;;;4997276;28;20046;-71
2022/06/30 12:26:55;;;;;;;10.40;2.70;;;31.60;60.70;;;;;;4979804;28;20089;-71
2022/06/30 12:29:23;;;;;;;7.60;2.83;;;31.30;59.00;;;;;;4995631;28;20097;-71
2022/06/30 12:32:05;;;;;;;8.52;2.40;;;31.30;59.70;;;;;;4995514;28;20549;-71
2022/06/30 12:34:32;;;;;;;5.30;2.55;;;31.10;55.80;;;;;;4996099;28;20034;-71
2022/06/30 12:37:02;;;;;;;7.65;2.55;;;31.10;58.90;;;;;;4996667;28;20046;-71
2022/06/30 12:39:30;;;;;;;5.55;2.10;;;31.10;55.90;;;;;;4980295;28;20034;-71
2022/06/30 12:42:01;;;;;;;4.93;2.20;;;31.30;55.40;;;;;;4979207;28;20042;-71
2022/06/30 12:44:35;;;;;;;9.77;2.00;;;31.20;52.60;;;;;;4979872;28;20364;-71
2022/06/30 12:47:11;;;;;;;7.57;1.70;;;31.10;53.00;;;;;;4996638;28;20046;-71
2022/06/30 12:49:38;;;;;;;11.88;2.22;;;31.00;52.50;;;;;;4996585;28;20049;-71
2022/06/30 12:52:19;;;;;;;5.35;1.83;;;30.90;52.00;;;;;;4978776;28;20042;-71
2022/06/30 12:54:58;;;;;;;5.25;1.83;;;30.80;52.80;;;;;;4979158;28;20392;-71
2022/06/30 12:57:25;;;;;;;5.63;2.15;;;30.90;51.80;;;;;;4995126;28;20038;-70
2022/06/30 12:59:54;;;;;;;5.72;2.13;;;30.70;52.70;;;;;;4978840;28;20052;-71
2022/06/30 13:02:22;;;;;;;5.20;2.90;;;30.80;54.70;;;;;;4963574;28;20050;-70
2022/06/30 13:04:52;;;;;;;7.15;3.15;;;30.90;56.10;;;;;;4962806;28;20038;-71
2022/06/30 13:07:18;;;;;;;7.53;4.25;;;30.90;57.20;;;;;;4978780;28;20073;-70